createdAt,value
2019-01-03T00:00:04.647Z,-0.80
2019-01-03T00:01:04.677Z,-0.80
2019-01-03T00:02:04.252Z,-0.80
2019-01-03T00:03:04.354Z,-0.80
2019-01-03T00:04:04.537Z,-0.80
2019-01-03T00:05:04.837Z,-0.80
2019-01-03T00:06:04.825Z,-0.80
2019-01-03T00:07:05.310Z,-0.80
2019-01-03T00:08:10.115Z,-0.80
2019-01-03T00:09:04.527Z,-0.80
2019-01-03T00:10:04.705Z,-0.80
2019-01-03T00:11:04.743Z,-0.80
2019-01-03T00:12:04.855Z,-0.80
2019-01-03T00:13:05.218Z,-0.80
2019-01-03T00:14:05.290Z,-0.80
2019-01-03T00:15:04.290Z,-0.80
2019-01-03T00:16:04.475Z,-0.80
2019-01-03T00:17:04.231Z,-0.80
2019-01-03T00:18:04.628Z,-0.80
2019-01-03T00:19:04.524Z,-0.80
2019-01-03T00:20:05.087Z,-0.90
2019-01-03T00:21:04.531Z,-0.90
2019-01-03T00:22:04.697Z,-0.90
2019-01-03T00:23:04.530Z,-0.90
2019-01-03T00:24:04.604Z,-0.90
2019-01-03T00:25:04.992Z,-0.90
2019-01-03T00:26:04.911Z,-0.90
2019-01-03T00:27:05.065Z,-0.90
2019-01-03T00:28:04.623Z,-0.90
2019-01-03T00:29:09.738Z,-0.90
2019-01-03T00:30:05.223Z,-1.00
2019-01-03T00:31:04.239Z,-1.00
2019-01-03T00:32:04.283Z,-1.00
2019-01-03T00:33:04.700Z,-1.00
2019-01-03T00:34:04.992Z,-1.00
2019-01-03T00:35:04.850Z,-1.00
2019-01-03T00:36:04.578Z,-1.00
2019-01-03T00:37:04.873Z,-1.00
2019-01-03T00:38:05.193Z,-1.00
2019-01-03T00:39:04.267Z,-1.00
2019-01-03T00:40:04.825Z,-1.00
2019-01-03T00:41:04.761Z,-1.10
2019-01-03T00:42:04.928Z,-1.00
2019-01-03T00:43:04.994Z,-1.10
2019-01-03T00:44:05.218Z,-1.10
2019-01-03T00:45:04.667Z,-1.10
2019-01-03T00:46:04.220Z,-1.10
2019-01-03T00:47:04.452Z,-1.10
2019-01-03T00:48:05.143Z,-1.10
2019-01-03T00:49:04.604Z,-1.10
2019-01-03T00:50:04.873Z,-1.10
2019-01-03T00:51:04.495Z,-1.10
2019-01-03T00:52:05.107Z,-1.10
2019-01-03T00:53:04.471Z,-1.10
2019-01-03T00:54:04.857Z,-1.20
2019-01-03T00:55:04.923Z,-1.20
2019-01-03T00:56:05.105Z,-1.20
2019-01-03T00:57:04.373Z,-1.20
2019-01-03T00:58:04.865Z,-1.20
2019-01-03T00:59:04.985Z,-1.20
2019-01-03T01:00:05.344Z,-1.20
2019-01-03T01:01:04.372Z,-1.20
2019-01-03T01:02:04.654Z,-1.20
2019-01-03T01:03:04.812Z,-1.20
2019-01-03T01:04:04.749Z,-1.20
2019-01-03T01:05:04.322Z,-1.20
2019-01-03T01:06:05.029Z,-1.30
2019-01-03T01:07:04.601Z,-1.30
2019-01-03T01:08:04.808Z,-1.30
2019-01-03T01:09:04.745Z,-1.30
2019-01-03T01:10:04.696Z,-1.20
2019-01-03T01:11:04.160Z,-1.30
2019-01-03T01:12:04.178Z,-1.30
2019-01-03T01:13:04.353Z,-1.30
2019-01-03T01:14:04.944Z,-1.30
2019-01-03T01:15:04.438Z,-1.30
2019-01-03T01:16:04.797Z,-1.30
2019-01-03T01:17:04.821Z,-1.30
2019-01-03T01:18:04.966Z,-1.30
2019-01-03T01:19:05.051Z,-1.30
2019-01-03T01:20:04.451Z,-1.30
2019-01-03T01:21:04.638Z,-1.30
2019-01-03T01:22:04.516Z,-1.30
2019-01-03T01:23:04.525Z,-1.30
2019-01-03T01:24:04.491Z,-1.30
2019-01-03T01:25:04.650Z,-1.30
2019-01-03T01:26:05.164Z,-1.30
2019-01-03T01:27:04.436Z,-1.30
2019-01-03T01:28:04.529Z,-1.30
2019-01-03T01:29:09.706Z,-1.30
2019-01-03T01:30:05.108Z,-1.30
2019-01-03T01:31:05.081Z,-1.30
2019-01-03T01:32:04.628Z,-1.30
2019-01-03T01:33:04.813Z,-1.30
2019-01-03T01:34:04.982Z,-1.30
2019-01-03T01:35:04.540Z,-1.40
2019-01-03T01:36:04.700Z,-1.30
2019-01-03T01:37:04.611Z,-1.40
2019-01-03T01:38:05.163Z,-1.40
2019-01-03T01:39:04.383Z,-1.40
2019-01-03T01:40:04.263Z,-1.40
2019-01-03T01:41:04.532Z,-1.40
2019-01-03T01:42:04.527Z,-1.40
2019-01-03T01:43:04.447Z,-1.40
2019-01-03T01:44:04.553Z,-1.40
2019-01-03T01:45:04.953Z,-1.40
2019-01-03T01:46:05.862Z,-1.40
2019-01-03T01:47:04.622Z,-1.50
2019-01-03T01:48:04.604Z,-1.50
2019-01-03T01:49:04.710Z,-1.50
2019-01-03T01:50:04.713Z,-1.50
2019-01-03T01:51:05.168Z,-1.50
2019-01-03T01:52:04.707Z,-1.50
2019-01-03T01:53:04.334Z,-1.50
2019-01-03T01:54:04.780Z,-1.50
2019-01-03T01:55:04.232Z,-1.50
2019-01-03T01:56:04.631Z,-1.50
2019-01-03T01:57:05.051Z,-1.60
2019-01-03T01:58:05.053Z,-1.60
2019-01-03T01:59:05.069Z,-1.60
2019-01-03T02:00:04.544Z,-1.60
2019-01-03T02:01:04.351Z,-1.60
2019-01-03T02:02:04.569Z,-1.60
2019-01-03T02:03:04.805Z,-1.60
2019-01-03T02:04:04.243Z,-1.60
2019-01-03T02:05:04.596Z,-1.60
2019-01-03T02:06:04.539Z,-1.70
2019-01-03T02:07:04.979Z,-1.70
2019-01-03T02:08:05.678Z,-1.70
2019-01-03T02:09:04.462Z,-1.70
2019-01-03T02:10:04.442Z,-1.70
2019-01-03T02:11:04.515Z,-1.70
2019-01-03T02:12:04.907Z,-1.70
2019-01-03T02:13:05.074Z,-1.70
2019-01-03T02:14:04.456Z,-1.70
2019-01-03T02:15:04.613Z,-1.70
2019-01-03T02:16:04.992Z,-1.70
2019-01-03T02:17:05.078Z,-1.70
2019-01-03T02:18:04.567Z,-1.70
2019-01-03T02:19:04.525Z,-1.80
2019-01-03T02:20:05.049Z,-1.80
2019-01-03T02:21:04.242Z,-1.80
2019-01-03T02:22:04.444Z,-1.80
2019-01-03T02:23:04.412Z,-1.80
2019-01-03T02:24:04.892Z,-1.80
2019-01-03T02:25:04.950Z,-1.80
2019-01-03T02:26:04.998Z,-1.80
2019-01-03T02:27:04.317Z,-1.90
2019-01-03T02:28:04.871Z,-1.80
2019-01-03T02:29:09.825Z,-1.80
2019-01-03T02:30:04.322Z,-1.90
2019-01-03T02:31:04.230Z,-1.90
2019-01-03T02:32:04.293Z,-1.90
2019-01-03T02:33:04.760Z,-1.90
2019-01-03T02:34:04.229Z,-1.90
2019-01-03T02:35:04.279Z,-1.90
2019-01-03T02:36:04.380Z,-1.90
2019-01-03T02:37:04.325Z,-1.90
2019-01-03T02:38:04.774Z,-1.90
2019-01-03T02:39:05.102Z,-1.90
2019-01-03T02:40:04.436Z,-1.90
2019-01-03T02:41:04.913Z,-1.90
2019-01-03T02:42:05.048Z,-1.90
2019-01-03T02:43:05.165Z,-1.90
2019-01-03T02:44:04.205Z,-1.90
2019-01-03T02:45:04.500Z,-1.90
2019-01-03T02:46:04.765Z,-1.90
2019-01-03T02:47:04.787Z,-1.90
2019-01-03T02:48:04.730Z,-1.90
2019-01-03T02:49:04.717Z,-1.90
2019-01-03T02:50:04.753Z,-1.90
2019-01-03T02:51:04.965Z,-1.90
2019-01-03T02:52:04.927Z,-2.00
2019-01-03T02:53:05.012Z,-2.00
2019-01-03T02:54:05.054Z,-2.00
2019-01-03T02:55:04.546Z,-2.00
2019-01-03T02:56:04.634Z,-2.00
2019-01-03T02:57:04.866Z,-2.00
2019-01-03T02:58:05.116Z,-2.00
2019-01-03T02:59:04.965Z,-2.00
2019-01-03T03:00:05.070Z,-2.00
2019-01-03T03:01:04.972Z,-2.00
2019-01-03T03:02:05.169Z,-2.00
2019-01-03T03:03:05.252Z,-2.00
2019-01-03T03:04:04.282Z,-2.00
2019-01-03T03:05:04.239Z,-2.00
2019-01-03T03:06:04.386Z,-2.00
2019-01-03T03:07:04.698Z,-2.00
2019-01-03T03:08:04.935Z,-2.00
2019-01-03T03:09:04.245Z,-2.00
2019-01-03T03:10:04.470Z,-2.00
2019-01-03T03:11:04.870Z,-2.00
2019-01-03T03:12:04.814Z,-2.00
2019-01-03T03:13:05.151Z,-2.00
2019-01-03T03:14:04.429Z,-2.00
2019-01-03T03:15:04.607Z,-2.00
2019-01-03T03:16:04.833Z,-2.00
2019-01-03T03:17:04.805Z,-2.00
2019-01-03T03:18:04.933Z,-2.00
2019-01-03T03:19:04.313Z,-2.00
2019-01-03T03:20:04.320Z,-2.00
2019-01-03T03:21:04.610Z,-2.10
2019-01-03T03:22:04.681Z,-2.10
2019-01-03T03:23:04.683Z,-2.00
2019-01-03T03:24:04.899Z,-2.00
2019-01-03T03:25:05.176Z,-2.00
2019-01-03T03:26:05.158Z,-2.10
2019-01-03T03:27:05.194Z,-2.10
2019-01-03T03:28:04.823Z,-2.10
2019-01-03T03:29:04.963Z,-2.00
2019-01-03T03:30:05.062Z,-2.10
2019-01-03T03:31:05.766Z,-2.00
2019-01-03T03:32:04.677Z,-2.00
2019-01-03T03:33:10.134Z,-2.00
2019-01-03T03:34:04.601Z,-2.00
2019-01-03T03:35:04.744Z,-2.00
2019-01-03T03:36:04.988Z,-2.00
2019-01-03T03:37:05.035Z,-2.00
2019-01-03T03:38:05.162Z,-2.00
2019-01-03T03:39:05.124Z,-2.00
2019-01-03T03:40:04.377Z,-2.00
2019-01-03T03:41:06.275Z,-2.00
2019-01-03T03:42:05.117Z,-2.00
2019-01-03T03:43:05.102Z,-2.00
2019-01-03T03:44:05.072Z,-2.00
2019-01-03T03:45:05.093Z,-2.00
2019-01-03T03:46:04.615Z,-2.10
2019-01-03T03:47:04.836Z,-2.10
2019-01-03T03:48:04.699Z,-2.10
2019-01-03T03:49:04.886Z,-2.10
2019-01-03T03:50:04.821Z,-2.10
2019-01-03T03:51:05.202Z,-2.10
2019-01-03T03:52:04.357Z,-2.10
2019-01-03T03:53:05.039Z,-2.10
2019-01-03T03:54:04.991Z,-2.10
2019-01-03T03:55:05.132Z,-2.10
2019-01-03T03:56:04.697Z,-2.10
2019-01-03T03:57:04.793Z,-2.10
2019-01-03T03:58:04.777Z,-2.10
2019-01-03T03:59:04.909Z,-2.10
2019-01-03T04:00:04.593Z,-2.10
2019-01-03T04:01:04.984Z,-2.20
2019-01-03T04:02:04.237Z,-2.20
2019-01-03T04:03:04.890Z,-2.20
2019-01-03T04:04:04.203Z,-2.20
2019-01-03T04:05:04.316Z,-2.20
2019-01-03T04:06:04.428Z,-2.20
2019-01-03T04:07:09.849Z,-2.20
2019-01-03T04:08:04.305Z,-2.20
2019-01-03T04:09:04.210Z,-2.20
2019-01-03T04:10:04.297Z,-2.20
2019-01-03T04:11:04.646Z,-2.30
2019-01-03T04:12:05.203Z,-2.30
2019-01-03T04:13:04.836Z,-2.30
2019-01-03T04:14:05.154Z,-2.30
2019-01-03T04:15:04.399Z,-2.30
2019-01-03T04:16:04.526Z,-2.30
2019-01-03T04:17:04.698Z,-2.30
2019-01-03T04:18:04.716Z,-2.30
2019-01-03T04:19:04.822Z,-2.30
2019-01-03T04:20:04.938Z,-2.30
2019-01-03T04:21:05.130Z,-2.40
2019-01-03T04:22:05.213Z,-2.40
2019-01-03T04:23:04.389Z,-2.40
2019-01-03T04:24:05.100Z,-2.40
2019-01-03T04:25:04.484Z,-2.40
2019-01-03T04:26:04.508Z,-2.40
2019-01-03T04:27:04.616Z,-2.40
2019-01-03T04:28:04.542Z,-2.40
2019-01-03T04:29:09.513Z,-2.40
2019-01-03T04:30:04.960Z,-2.40
2019-01-03T04:31:05.018Z,-2.40
2019-01-03T04:32:04.945Z,-2.40
2019-01-03T04:33:04.536Z,-2.50
2019-01-03T04:34:04.499Z,-2.50
2019-01-03T04:35:04.702Z,-2.50
2019-01-03T04:36:04.853Z,-2.50
2019-01-03T04:37:04.849Z,-2.50
2019-01-03T04:38:04.342Z,-2.50
2019-01-03T04:39:04.333Z,-2.50
2019-01-03T04:40:04.460Z,-2.50
2019-01-03T04:41:04.587Z,-2.50
2019-01-03T04:42:04.685Z,-2.60
2019-01-03T04:43:04.623Z,-2.60
2019-01-03T04:44:04.818Z,-2.60
2019-01-03T04:45:05.092Z,-2.60
2019-01-03T04:46:04.748Z,-2.60
2019-01-03T04:47:04.758Z,-2.60
2019-01-03T04:48:04.841Z,-2.60
2019-01-03T04:49:09.814Z,-2.70
2019-01-03T04:50:04.359Z,-2.70
2019-01-03T04:51:04.562Z,-2.70
2019-01-03T04:52:04.179Z,-2.70
2019-01-03T04:53:04.872Z,-2.70
2019-01-03T04:54:04.746Z,-2.70
2019-01-03T04:55:04.978Z,-2.70
2019-01-03T04:56:05.076Z,-2.70
2019-01-03T04:57:04.294Z,-2.80
2019-01-03T04:58:04.389Z,-2.80
2019-01-03T04:59:04.617Z,-2.80
2019-01-03T05:00:04.762Z,-2.80
2019-01-03T05:01:04.681Z,-2.80
2019-01-03T05:02:04.805Z,-2.80
2019-01-03T05:03:04.843Z,-2.80
2019-01-03T05:04:05.088Z,-2.80
2019-01-03T05:05:05.195Z,-2.80
2019-01-03T05:06:04.176Z,-2.80
2019-01-03T05:07:04.864Z,-2.80
2019-01-03T05:08:04.953Z,-2.80
2019-01-03T05:09:04.687Z,-2.90
2019-01-03T05:10:04.601Z,-2.90
2019-01-03T05:11:05.225Z,-2.90
2019-01-03T05:12:05.191Z,-2.90
2019-01-03T05:13:04.432Z,-2.90
2019-01-03T05:14:04.540Z,-2.90
2019-01-03T05:15:04.701Z,-2.90
2019-01-03T05:16:04.951Z,-2.90
2019-01-03T05:17:05.159Z,-2.90
2019-01-03T05:18:04.780Z,-2.90
2019-01-03T05:19:04.940Z,-3.00
2019-01-03T05:20:05.018Z,-3.00
2019-01-03T05:21:05.042Z,-3.00
2019-01-03T05:22:04.555Z,-3.00
2019-01-03T05:23:05.052Z,-3.00
2019-01-03T05:24:05.240Z,-3.00
2019-01-03T05:25:04.842Z,-3.00
2019-01-03T05:26:04.841Z,-3.00
2019-01-03T05:27:04.895Z,-3.00
2019-01-03T05:28:04.327Z,-3.00
2019-01-03T05:29:09.733Z,-3.00
2019-01-03T05:30:04.614Z,-3.00
2019-01-03T05:31:04.941Z,-3.00
2019-01-03T05:32:05.132Z,-3.00
2019-01-03T05:33:04.377Z,-3.00
2019-01-03T05:34:04.831Z,-3.00
2019-01-03T05:35:04.257Z,-3.10
2019-01-03T05:36:04.688Z,-3.10
2019-01-03T05:37:04.697Z,-3.10
2019-01-03T05:38:04.879Z,-3.10
2019-01-03T05:39:04.405Z,-3.10
2019-01-03T05:40:04.706Z,-3.10
2019-01-03T05:41:05.189Z,-3.00
2019-01-03T05:42:05.316Z,-3.10
2019-01-03T05:43:04.540Z,-3.10
2019-01-03T05:44:04.936Z,-3.00
2019-01-03T05:45:04.885Z,-3.00
2019-01-03T05:46:04.702Z,-3.10
2019-01-03T05:47:04.363Z,-3.00
2019-01-03T05:48:04.426Z,-3.00
2019-01-03T05:49:04.633Z,-3.00
2019-01-03T05:50:04.681Z,-3.00
2019-01-03T05:51:04.747Z,-3.00
2019-01-03T05:52:05.102Z,-3.00
2019-01-03T05:53:04.535Z,-3.00
2019-01-03T05:54:04.714Z,-3.00
2019-01-03T05:55:04.682Z,-3.00
2019-01-03T05:56:04.748Z,-3.00
2019-01-03T05:57:04.351Z,-3.00
2019-01-03T05:58:04.250Z,-3.00
2019-01-03T05:59:04.258Z,-3.00
2019-01-03T06:00:04.433Z,-3.00
2019-01-03T06:01:04.743Z,-3.00
2019-01-03T06:02:04.973Z,-3.00
2019-01-03T06:03:09.729Z,-3.00
2019-01-03T06:04:05.186Z,-3.00
2019-01-03T06:05:05.240Z,-3.00
2019-01-03T06:06:05.040Z,-3.00
2019-01-03T06:07:04.335Z,-3.00
2019-01-03T06:08:04.523Z,-3.00
2019-01-03T06:09:04.756Z,-3.00
2019-01-03T06:10:04.716Z,-3.00
2019-01-03T06:11:04.498Z,-2.90
2019-01-03T06:12:05.091Z,-2.90
2019-01-03T06:13:05.218Z,-2.90
2019-01-03T06:14:04.745Z,-2.90
2019-01-03T06:15:04.702Z,-2.90
2019-01-03T06:16:04.279Z,-2.90
2019-01-03T06:17:04.291Z,-2.90
2019-01-03T06:18:04.777Z,-2.90
2019-01-03T06:19:04.892Z,-2.90
2019-01-03T06:20:05.259Z,-2.90
2019-01-03T06:21:04.274Z,-2.90
2019-01-03T06:22:04.695Z,-2.80
2019-01-03T06:23:04.900Z,-2.80
2019-01-03T06:24:04.897Z,-2.80
2019-01-03T06:25:05.240Z,-2.80
2019-01-03T06:26:04.997Z,-2.80
2019-01-03T06:27:05.156Z,-2.80
2019-01-03T06:28:05.282Z,-2.80
2019-01-03T06:29:09.232Z,-2.80
2019-01-03T06:30:04.681Z,-2.80
2019-01-03T06:31:04.882Z,-2.80
2019-01-03T06:32:04.293Z,-2.80
2019-01-03T06:33:04.671Z,-2.80
2019-01-03T06:34:05.020Z,-2.80
2019-01-03T06:35:04.537Z,-2.80
2019-01-03T06:36:05.030Z,-2.80
2019-01-03T06:37:04.272Z,-2.80
2019-01-03T06:38:04.710Z,-2.80
2019-01-03T06:39:04.865Z,-2.80
2019-01-03T06:40:04.755Z,-2.80
2019-01-03T06:41:04.748Z,-2.80
2019-01-03T06:42:05.142Z,-2.80
2019-01-03T06:43:04.725Z,-2.80
2019-01-03T06:44:04.238Z,-2.80
2019-01-03T06:45:04.930Z,-2.80
2019-01-03T06:46:04.891Z,-2.80
2019-01-03T06:47:04.895Z,-2.80
2019-01-03T06:48:04.434Z,-2.80
2019-01-03T06:49:04.662Z,-2.90
2019-01-03T06:50:04.708Z,-2.90
2019-01-03T06:51:04.769Z,-2.90
2019-01-03T06:52:04.191Z,-2.90
2019-01-03T06:53:04.606Z,-2.90
2019-01-03T06:54:04.488Z,-2.90
2019-01-03T06:55:04.587Z,-3.00
2019-01-03T06:56:04.591Z,-2.90
2019-01-03T06:57:04.700Z,-3.00
2019-01-03T06:58:09.936Z,-3.00
2019-01-03T06:59:04.377Z,-3.00
2019-01-03T07:00:05.009Z,-3.00
2019-01-03T07:01:04.520Z,-3.00
2019-01-03T07:02:05.113Z,-3.00
2019-01-03T07:03:05.199Z,-3.10
2019-01-03T07:04:05.072Z,-3.10
2019-01-03T07:05:05.133Z,-3.10
2019-01-03T07:06:04.269Z,-3.10
2019-01-03T07:07:04.648Z,-3.10
2019-01-03T07:08:04.970Z,-3.10
2019-01-03T07:09:05.162Z,-3.10
2019-01-03T07:10:04.471Z,-3.10
2019-01-03T07:11:04.501Z,-3.20
2019-01-03T07:12:04.593Z,-3.10
2019-01-03T07:13:04.699Z,-3.20
2019-01-03T07:14:04.617Z,-3.20
2019-01-03T07:15:04.706Z,-3.20
2019-01-03T07:16:04.318Z,-3.20
2019-01-03T07:17:04.486Z,-3.20
2019-01-03T07:18:05.153Z,-3.20
2019-01-03T07:19:05.219Z,-3.20
2019-01-03T07:20:04.439Z,-3.20
2019-01-03T07:21:04.775Z,-3.20
2019-01-03T07:22:04.765Z,-3.20
2019-01-03T07:23:04.993Z,-3.20
2019-01-03T07:24:04.427Z,-3.20
2019-01-03T07:25:04.631Z,-3.20
2019-01-03T07:26:06.025Z,-3.20
2019-01-03T07:27:04.587Z,-3.20
2019-01-03T07:28:04.884Z,-3.20
2019-01-03T07:29:05.387Z,-3.20
2019-01-03T07:30:04.313Z,-3.20
2019-01-03T07:31:04.769Z,-3.30
2019-01-03T07:32:09.331Z,-3.30
2019-01-03T07:33:04.902Z,-3.30
2019-01-03T07:34:04.997Z,-3.30
2019-01-03T07:35:04.445Z,-3.30
2019-01-03T07:36:04.919Z,-3.30
2019-01-03T07:37:05.002Z,-3.30
2019-01-03T07:38:05.135Z,-3.30
2019-01-03T07:39:04.328Z,-3.30
2019-01-03T07:40:05.030Z,-3.30
2019-01-03T07:41:04.978Z,-3.30
2019-01-03T07:42:04.273Z,-3.30
2019-01-03T07:43:04.325Z,-3.30
2019-01-03T07:44:04.309Z,-3.30
2019-01-03T07:45:04.322Z,-3.30
2019-01-03T07:46:04.469Z,-3.30
2019-01-03T07:47:04.442Z,-3.30
2019-01-03T07:48:05.601Z,-3.30
2019-01-03T07:49:04.789Z,-3.30
2019-01-03T07:50:04.925Z,-3.30
2019-01-03T07:51:04.483Z,-3.30
2019-01-03T07:52:09.603Z,-3.30
2019-01-03T07:53:05.013Z,-3.30
2019-01-03T07:54:04.518Z,-3.30
2019-01-03T07:55:04.683Z,-3.30
2019-01-03T07:56:04.743Z,-3.30
2019-01-03T07:57:04.792Z,-3.30
2019-01-03T07:58:04.758Z,-3.40
2019-01-03T07:59:04.942Z,-3.40
2019-01-03T08:00:04.291Z,-3.40
2019-01-03T08:01:04.808Z,-3.40
2019-01-03T08:02:05.020Z,-3.40
2019-01-03T08:03:05.137Z,-3.40
2019-01-03T08:04:04.531Z,-3.40
2019-01-03T08:05:04.757Z,-3.40
2019-01-03T08:06:04.901Z,-3.40
2019-01-03T08:07:04.174Z,-3.40
2019-01-03T08:08:04.377Z,-3.40
2019-01-03T08:09:04.705Z,-3.40
2019-01-03T08:10:04.839Z,-3.40
2019-01-03T08:11:05.138Z,-3.40
2019-01-03T08:12:05.216Z,-3.40
2019-01-03T08:13:05.176Z,-3.40
2019-01-03T08:14:04.358Z,-3.40
2019-01-03T08:15:04.526Z,-3.40
2019-01-03T08:16:04.711Z,-3.40
2019-01-03T08:17:04.460Z,-3.40
2019-01-03T08:18:04.937Z,-3.40
2019-01-03T08:19:04.724Z,-3.40
2019-01-03T08:20:05.044Z,-3.40
2019-01-03T08:21:04.721Z,-3.40
2019-01-03T08:22:05.030Z,-3.30
2019-01-03T08:23:05.199Z,-3.30
2019-01-03T08:24:05.077Z,-3.30
2019-01-03T08:25:04.694Z,-3.30
2019-01-03T08:26:04.949Z,-3.30
2019-01-03T08:27:04.986Z,-3.30
2019-01-03T08:28:04.503Z,-3.30
2019-01-03T08:29:09.659Z,-3.30
2019-01-03T08:30:04.196Z,-3.30
2019-01-03T08:31:04.806Z,-3.20
2019-01-03T08:32:05.137Z,-3.20
2019-01-03T08:33:05.340Z,-3.20
2019-01-03T08:34:04.217Z,-3.20
2019-01-03T08:35:04.722Z,-3.20
2019-01-03T08:36:04.735Z,-3.10
2019-01-03T08:37:05.144Z,-3.10
2019-01-03T08:38:04.741Z,-3.10
2019-01-03T08:39:04.409Z,-3.00
2019-01-03T08:40:04.993Z,-3.00
2019-01-03T08:41:04.635Z,-3.00
2019-01-03T08:42:04.932Z,-3.00
2019-01-03T08:43:05.050Z,-3.00
2019-01-03T08:44:05.058Z,-2.90
2019-01-03T08:45:05.206Z,-2.90
2019-01-03T08:46:04.519Z,-2.90
2019-01-03T08:47:04.514Z,-2.90
2019-01-03T08:48:04.666Z,-2.80
2019-01-03T08:49:10.186Z,-2.80
2019-01-03T08:50:04.734Z,-2.80
2019-01-03T08:51:04.727Z,-2.70
2019-01-03T08:52:04.868Z,-2.70
2019-01-03T08:53:04.413Z,-2.70
2019-01-03T08:54:04.558Z,-2.70
2019-01-03T08:55:04.646Z,-2.70
2019-01-03T08:56:05.021Z,-2.60
2019-01-03T08:57:05.059Z,-2.60
2019-01-03T08:58:05.027Z,-2.60
2019-01-03T08:59:05.245Z,-2.60
2019-01-03T09:00:05.932Z,-2.60
2019-01-03T09:01:04.953Z,-2.50
2019-01-03T09:02:04.361Z,-2.50
2019-01-03T09:03:04.465Z,-2.50
2019-01-03T09:04:04.865Z,-2.50
2019-01-03T09:05:04.850Z,-2.50
2019-01-03T09:06:04.958Z,-2.40
2019-01-03T09:07:05.208Z,-2.40
2019-01-03T09:08:04.702Z,-2.40
2019-01-03T09:09:04.710Z,-2.40
2019-01-03T09:10:04.746Z,-2.40
2019-01-03T09:11:05.077Z,-2.30
2019-01-03T09:12:04.362Z,-2.30
2019-01-03T09:13:04.799Z,-2.30
2019-01-03T09:14:05.042Z,-2.30
2019-01-03T09:15:04.265Z,-2.30
2019-01-03T09:16:04.272Z,-2.20
2019-01-03T09:17:04.412Z,-2.20
2019-01-03T09:18:09.533Z,-2.20
2019-01-03T09:19:04.400Z,-2.20
2019-01-03T09:20:04.198Z,-2.20
2019-01-03T09:21:04.484Z,-2.20
2019-01-03T09:22:04.592Z,-2.10
2019-01-03T09:23:04.577Z,-2.10
2019-01-03T09:24:05.113Z,-2.10
2019-01-03T09:25:04.242Z,-2.10
2019-01-03T09:26:04.492Z,-2.10
2019-01-03T09:27:04.618Z,-2.00
2019-01-03T09:28:05.028Z,-2.00
2019-01-03T09:29:10.263Z,-2.00
2019-01-03T09:30:04.871Z,-2.00
2019-01-03T09:31:05.048Z,-2.00
2019-01-03T09:32:04.614Z,-1.90
2019-01-03T09:33:04.519Z,-1.90
2019-01-03T09:34:04.755Z,-1.90
2019-01-03T09:35:04.682Z,-1.90
2019-01-03T09:36:04.974Z,-1.80
2019-01-03T09:37:04.905Z,-1.80
2019-01-03T09:38:05.074Z,-1.80
2019-01-03T09:39:05.500Z,-1.80
2019-01-03T09:40:05.158Z,-1.70
2019-01-03T09:41:04.231Z,-1.70
2019-01-03T09:42:04.426Z,-1.70
2019-01-03T09:43:04.553Z,-1.60
2019-01-03T09:44:04.914Z,-1.60
2019-01-03T09:45:04.528Z,-1.60
2019-01-03T09:46:04.698Z,-1.60
2019-01-03T09:47:04.897Z,-1.50
2019-01-03T09:48:04.538Z,-1.50
2019-01-03T09:49:04.825Z,-1.50
2019-01-03T09:50:04.971Z,-1.50
2019-01-03T09:51:04.482Z,-1.40
2019-01-03T09:52:04.637Z,-1.40
2019-01-03T09:53:04.328Z,-1.40
2019-01-03T09:54:04.772Z,-1.30
2019-01-03T09:55:05.055Z,-1.30
2019-01-03T09:56:05.140Z,-1.30
2019-01-03T09:57:05.114Z,-1.20
2019-01-03T09:58:05.166Z,-1.20
2019-01-03T09:59:04.386Z,-1.20
2019-01-03T10:00:04.449Z,-1.20
2019-01-03T10:01:04.851Z,-1.20
2019-01-03T10:02:04.962Z,-1.10
2019-01-03T10:03:05.028Z,-1.10
2019-01-03T10:04:05.045Z,-1.10
2019-01-03T10:05:04.906Z,-1.00
2019-01-03T10:06:04.315Z,-1.00
2019-01-03T10:07:04.364Z,-1.00
2019-01-03T10:08:04.456Z,-1.00
2019-01-03T10:09:04.457Z,-0.90
2019-01-03T10:10:04.725Z,-0.90
2019-01-03T10:11:04.902Z,-0.90
2019-01-03T10:12:04.864Z,-0.80
2019-01-03T10:13:04.460Z,-0.80
2019-01-03T10:14:04.431Z,-0.80
2019-01-03T10:15:04.897Z,-0.80
2019-01-03T10:16:04.199Z,-0.80
2019-01-03T10:17:04.449Z,-0.70
2019-01-03T10:18:04.778Z,-0.70
2019-01-03T10:19:04.919Z,-0.70
2019-01-03T10:20:05.143Z,-0.60
2019-01-03T10:21:04.347Z,-0.60
2019-01-03T10:22:05.004Z,-0.60
2019-01-03T10:23:05.065Z,-0.60
2019-01-03T10:24:04.491Z,-0.50
2019-01-03T10:25:04.618Z,-0.50
2019-01-03T10:26:04.641Z,-0.50
2019-01-03T10:27:04.578Z,-0.40
2019-01-03T10:28:04.714Z,-0.40
2019-01-03T10:29:04.308Z,-0.40
2019-01-03T10:30:04.406Z,-0.40
2019-01-03T10:31:05.091Z,-0.30
2019-01-03T10:32:05.373Z,-0.30
2019-01-03T10:33:05.192Z,-0.30
2019-01-03T10:34:06.105Z,-0.30
2019-01-03T10:35:04.922Z,-0.20
2019-01-03T10:36:04.997Z,-0.20
2019-01-03T10:37:04.957Z,-0.20
2019-01-03T10:38:04.908Z,-0.10
2019-01-03T10:39:05.096Z,-0.10
2019-01-03T10:40:10.302Z,-0.10
2019-01-03T10:41:04.819Z,0.00
2019-01-03T10:42:04.830Z,0.00
2019-01-03T10:43:04.450Z,0.00
2019-01-03T10:44:04.590Z,0.00
2019-01-03T10:45:04.740Z,0.10
2019-01-03T10:46:04.706Z,0.10
2019-01-03T10:47:04.698Z,0.10
2019-01-03T10:48:05.068Z,0.20
2019-01-03T10:49:04.334Z,0.20
2019-01-03T10:50:04.855Z,0.20
2019-01-03T10:51:05.129Z,0.20
2019-01-03T10:52:04.848Z,0.30
2019-01-03T10:53:05.205Z,0.30
2019-01-03T10:54:04.355Z,0.30
2019-01-03T10:55:04.226Z,0.30
2019-01-03T10:56:04.420Z,0.40
2019-01-03T10:57:04.780Z,0.40
2019-01-03T10:58:04.371Z,0.40
2019-01-03T10:59:04.446Z,0.50
2019-01-03T11:00:04.680Z,0.50
2019-01-03T11:01:04.960Z,0.50
2019-01-03T11:02:04.924Z,0.50
2019-01-03T11:03:04.906Z,0.50
2019-01-03T11:04:05.329Z,0.60
2019-01-03T11:05:04.235Z,0.60
2019-01-03T11:06:04.237Z,0.60
2019-01-03T11:07:04.460Z,0.70
2019-01-03T11:08:04.911Z,0.70
2019-01-03T11:09:04.273Z,0.70
2019-01-03T11:10:04.342Z,0.80
2019-01-03T11:11:04.369Z,0.80
2019-01-03T11:12:04.921Z,0.80
2019-01-03T11:13:04.976Z,0.80
2019-01-03T11:14:04.958Z,0.90
2019-01-03T11:15:05.228Z,0.90
2019-01-03T11:16:04.299Z,0.90
2019-01-03T11:17:04.431Z,1.00
2019-01-03T11:18:04.787Z,1.00
2019-01-03T11:19:04.190Z,1.10
2019-01-03T11:20:04.453Z,1.10
2019-01-03T11:21:04.611Z,1.10
2019-01-03T11:22:04.502Z,1.20
2019-01-03T11:23:04.532Z,1.20
2019-01-03T11:24:04.794Z,1.30
2019-01-03T11:25:04.430Z,1.30
2019-01-03T11:26:05.142Z,1.30
2019-01-03T11:27:04.657Z,1.40
2019-01-03T11:28:04.591Z,1.40
2019-01-03T11:29:04.173Z,1.50
2019-01-03T11:30:04.758Z,1.50
2019-01-03T11:31:04.741Z,1.60
2019-01-03T11:32:04.975Z,1.60
2019-01-03T11:33:05.046Z,1.60
2019-01-03T11:34:05.215Z,1.70
2019-01-03T11:35:04.507Z,1.70
2019-01-03T11:36:04.888Z,1.70
2019-01-03T11:37:04.999Z,1.70
2019-01-03T11:38:04.507Z,1.70
2019-01-03T11:39:04.504Z,1.70
2019-01-03T11:40:04.693Z,1.70
2019-01-03T11:41:04.341Z,1.70
2019-01-03T11:42:04.516Z,1.70
2019-01-03T11:43:04.653Z,1.70
2019-01-03T11:44:04.980Z,1.70
2019-01-03T11:45:04.615Z,1.70
2019-01-03T11:46:04.288Z,1.70
2019-01-03T11:47:04.296Z,1.70
2019-01-03T11:48:09.655Z,1.70
2019-01-03T11:49:05.107Z,1.70
2019-01-03T11:50:04.643Z,1.70
2019-01-03T11:51:04.708Z,1.70
2019-01-03T11:52:04.440Z,1.70
2019-01-03T11:53:04.893Z,1.70
2019-01-03T11:54:05.061Z,1.70
2019-01-03T11:55:05.180Z,1.70
2019-01-03T11:56:04.240Z,1.70
2019-01-03T11:57:04.460Z,1.70
2019-01-03T11:58:04.952Z,1.70
2019-01-03T11:59:04.740Z,1.70
2019-01-03T12:00:04.683Z,1.70
2019-01-03T12:01:04.890Z,1.70
2019-01-03T12:02:04.971Z,1.70
2019-01-03T12:03:05.207Z,1.70
2019-01-03T12:04:05.286Z,1.70
2019-01-03T12:05:04.288Z,1.70
2019-01-03T12:06:04.984Z,1.70
2019-01-03T12:07:06.049Z,1.70
2019-01-03T12:08:05.575Z,1.70
2019-01-03T12:09:07.118Z,1.60
2019-01-03T12:10:51.516Z,1.70
2019-01-03T12:11:05.449Z,1.70
2019-01-03T12:12:06.567Z,1.60
2019-01-03T12:13:04.969Z,1.60
2019-01-03T12:14:04.405Z,1.70
2019-01-03T12:15:06.785Z,1.60
2019-01-03T12:16:05.236Z,1.70
2019-01-03T12:17:05.653Z,1.70
2019-01-03T12:18:05.240Z,1.70
2019-01-03T12:19:05.993Z,1.70
2019-01-03T12:20:05.968Z,1.70
2019-01-03T12:21:05.099Z,1.70
2019-01-03T12:22:04.633Z,1.70
2019-01-03T12:23:05.259Z,1.70
2019-01-03T12:24:05.681Z,1.70
2019-01-03T12:25:04.855Z,1.70
2019-01-03T12:26:04.997Z,1.70
2019-01-03T12:27:04.449Z,1.70
2019-01-03T12:28:04.783Z,1.70
2019-01-03T12:29:04.826Z,1.70
2019-01-03T12:30:04.283Z,1.70
2019-01-03T12:31:04.405Z,1.70
2019-01-03T12:32:04.479Z,1.60
2019-01-03T12:33:04.587Z,1.60
2019-01-03T12:34:05.123Z,1.60
2019-01-03T12:35:05.210Z,1.60
2019-01-03T12:36:04.595Z,1.60
2019-01-03T12:37:05.145Z,1.60
2019-01-03T12:38:05.117Z,1.60
2019-01-03T12:39:04.198Z,1.60
2019-01-03T12:40:04.798Z,1.60
2019-01-03T12:41:04.954Z,1.50
2019-01-03T12:42:04.525Z,1.50
2019-01-03T12:43:04.506Z,1.50
2019-01-03T12:44:04.699Z,1.50
2019-01-03T12:45:05.122Z,1.50
2019-01-03T12:46:05.217Z,1.50
2019-01-03T12:47:05.238Z,1.50
2019-01-03T12:48:04.507Z,1.50
2019-01-03T12:49:04.705Z,1.50
2019-01-03T12:50:04.884Z,1.50
2019-01-03T12:51:04.964Z,1.50
2019-01-03T12:52:04.266Z,1.50
2019-01-03T12:53:04.361Z,1.50
2019-01-03T12:54:04.643Z,1.50
2019-01-03T12:55:04.572Z,1.50
2019-01-03T12:56:04.699Z,1.50
2019-01-03T12:57:04.298Z,1.50